createdAt,value
2023-04-10T00:01:10.778Z,81.20
2023-04-10T00:03:37.891Z,81.20
2023-04-10T00:06:05.779Z,81.00
2023-04-10T00:08:32.786Z,81.10
2023-04-10T00:10:59.711Z,81.10
2023-04-10T00:13:26.770Z,81.00
2023-04-10T00:15:53.735Z,80.90
2023-04-10T00:18:20.786Z,81.00
2023-04-10T00:20:47.760Z,81.20
2023-04-10T00:23:14.891Z,81.40
2023-04-10T00:25:41.880Z,81.50
2023-04-10T00:28:08.931Z,81.40
2023-04-10T00:30:36.294Z,81.60
2023-04-10T00:33:03.536Z,81.50
2023-04-10T00:35:30.728Z,81.40
2023-04-10T00:37:57.916Z,81.50
2023-04-10T00:40:25.171Z,81.50
2023-04-10T00:42:52.323Z,81.40
2023-04-10T00:45:19.398Z,81.30
2023-04-10T00:47:46.791Z,81.40
2023-04-10T00:50:13.933Z,81.50
2023-04-10T00:52:41.051Z,81.50
2023-04-10T00:55:08.592Z,81.50
2023-04-10T00:57:36.314Z,81.60
2023-04-10T01:00:06.913Z,81.80
2023-04-10T01:02:34.125Z,81.90
2023-04-10T01:05:02.316Z,82.00
2023-04-10T01:07:41.446Z,82.10
2023-04-10T01:10:14.709Z,82.00
2023-04-10T01:13:11.647Z,82.10
2023-04-10T01:16:04.859Z,82.30
2023-04-10T01:18:38.179Z,82.20
2023-04-10T01:21:09.393Z,82.30
2023-04-10T01:23:48.216Z,82.50
2023-04-10T01:26:19.791Z,82.40
2023-04-10T01:29:04.383Z,82.60
2023-04-10T01:31:41.928Z,82.60
2023-04-10T01:34:15.828Z,82.60
2023-04-10T01:37:23.613Z,82.50
2023-04-10T01:40:14.031Z,82.70
2023-04-10T01:42:47.800Z,82.70
2023-04-10T01:45:19.956Z,82.80
2023-04-10T01:47:49.404Z,82.70
2023-04-10T01:50:17.877Z,82.80
2023-04-10T01:52:46.417Z,82.90
2023-04-10T01:55:21.248Z,82.90
2023-04-10T01:57:56.553Z,82.90
2023-04-10T02:03:38.892Z,82.80
2023-04-10T02:06:18.604Z,82.70
2023-04-10T02:08:57.251Z,82.60
2023-04-10T02:11:38.425Z,82.70
2023-04-10T02:14:10.909Z,82.60
2023-04-10T02:16:45.686Z,82.50
2023-04-10T02:19:13.249Z,82.50
2023-04-10T02:21:42.184Z,82.40
2023-04-10T02:24:09.372Z,82.40
2023-04-10T02:26:51.173Z,82.60
2023-04-10T02:29:19.001Z,82.80
2023-04-10T02:31:46.825Z,82.80
2023-04-10T02:34:14.492Z,83.00
2023-04-10T02:36:41.865Z,83.00
2023-04-10T02:39:11.136Z,83.10
2023-04-10T02:41:46.710Z,83.20
2023-04-10T02:44:14.532Z,83.10
2023-04-10T02:46:42.507Z,83.20
2023-04-10T02:49:10.601Z,83.30
2023-04-10T02:51:37.532Z,83.20
2023-04-10T02:54:05.274Z,83.30
2023-04-10T02:56:36.618Z,83.50
2023-04-10T02:59:03.809Z,83.60
2023-04-10T03:01:32.112Z,83.60
2023-04-10T03:04:00.004Z,83.50
2023-04-10T03:06:31.381Z,83.50
2023-04-10T03:08:58.688Z,83.50
2023-04-10T03:11:27.349Z,83.40
2023-04-10T03:13:54.949Z,83.30
2023-04-10T03:16:22.249Z,83.30
2023-04-10T03:18:49.406Z,83.30
2023-04-10T03:21:16.683Z,83.20
2023-04-10T03:23:43.643Z,83.00
2023-04-10T03:26:11.336Z,83.10
2023-04-10T03:28:39.775Z,83.30
2023-04-10T03:31:09.869Z,83.40
2023-04-10T03:33:37.064Z,83.40
2023-04-10T03:36:04.998Z,83.40
2023-04-10T03:38:33.516Z,83.40
2023-04-10T03:41:00.498Z,83.40
2023-04-10T03:43:33.539Z,83.30
2023-04-10T03:46:02.961Z,83.30
2023-04-10T03:48:30.730Z,83.40
2023-04-10T03:50:58.296Z,83.60
2023-04-10T03:53:25.514Z,83.60
2023-04-10T03:55:54.140Z,83.60
2023-04-10T03:58:22.739Z,83.50
2023-04-10T04:00:51.085Z,83.30
2023-04-10T04:03:26.812Z,83.40
2023-04-10T04:06:05.931Z,83.70
2023-04-10T04:08:52.787Z,83.70
2023-04-10T04:11:57.939Z,83.70
2023-04-10T04:14:46.805Z,83.60
2023-04-10T04:17:46.718Z,83.70
2023-04-10T04:20:32.516Z,83.70
2023-04-10T04:23:33.477Z,83.60
2023-04-10T04:26:11.168Z,83.70
2023-04-10T04:29:13.560Z,84.00
2023-04-10T04:32:06.962Z,84.20
2023-04-10T04:34:56.564Z,84.20
2023-04-10T04:37:48.021Z,84.40
2023-04-10T04:41:46.611Z,84.40
2023-04-10T04:54:28.477Z,84.40
2023-04-10T04:57:18.160Z,84.40
2023-04-10T04:59:59.132Z,84.30
2023-04-10T05:02:56.296Z,84.20
2023-04-10T05:05:41.098Z,84.00
2023-04-10T05:08:26.756Z,84.20
2023-04-10T05:11:11.471Z,84.20
2023-04-10T05:14:14.480Z,84.20
2023-04-10T05:16:50.764Z,84.10
2023-04-10T05:19:40.418Z,84.10
2023-04-10T05:22:54.136Z,84.30
2023-04-10T05:25:53.636Z,84.50
2023-04-10T05:28:32.769Z,84.50
2023-04-10T05:35:30.461Z,84.60
2023-04-10T05:38:02.192Z,84.80
2023-04-10T05:40:31.831Z,84.90
2023-04-10T05:43:18.734Z,84.80
2023-04-10T05:46:12.043Z,84.80
2023-04-10T05:49:11.573Z,84.60
2023-04-10T05:51:38.717Z,84.60
2023-04-10T05:54:29.695Z,84.60
2023-04-10T05:57:32.589Z,84.80
2023-04-10T06:10:24.161Z,84.80
2023-04-10T06:13:01.414Z,84.90
2023-04-10T06:15:31.342Z,84.80
2023-04-10T06:17:58.584Z,84.90
2023-04-10T06:20:25.672Z,84.90
2023-04-10T06:23:03.441Z,85.10
2023-04-10T06:25:30.995Z,84.90
2023-04-10T06:28:01.180Z,85.10
